Time;durP1;ratioP1;P1;durP2;ratioP2;P2;SDS_P1;SDS_P2;PMS_P1;PMS_P2;Temp;Humidity;BMP_temperature;BMP_pressure;BME280_temperature;BME280_humidity;BME280_pressure;Samples;Min_cycle;Max_cycle;Signal;HPM_P1;HPM_P2
2023/08/02 00:00:21;;;;;;;2.40;1.80;;;19.10;99.90;;;;;;5045228;28;20295;-67
2023/08/02 00:02:46;;;;;;;12.27;2.07;;;19.10;99.90;;;;;;5042221;28;20642;-67
2023/08/02 00:05:12;;;;;;;5.63;1.40;;;19.20;99.90;;;;;;5045286;28;20421;-68
2023/08/02 00:07:37;;;;;;;3.60;2.00;;;19.10;99.90;;;;;;5042551;28;20249;-68
2023/08/02 00:10:03;;;;;;;4.47;2.00;;;19.30;99.90;;;;;;5044081;28;20195;-68
2023/08/02 00:12:29;;;;;;;2.77;2.17;;;19.30;99.90;;;;;;5043649;28;20162;-66
2023/08/02 00:14:54;;;;;;;2.13;1.93;;;19.50;99.90;;;;;;5045329;28;20408;-67
2023/08/02 00:17:20;;;;;;;2.13;1.93;;;19.60;99.90;;;;;;5043201;28;20209;-67
2023/08/02 00:19:45;;;;;;;3.20;2.00;;;19.60;99.90;;;;;;5043060;28;20646;-68
2023/08/02 00:22:11;;;;;;;6.17;2.20;;;19.70;99.90;;;;;;5045119;28;20170;-67
2023/08/02 00:24:36;;;;;;;3.10;2.10;;;19.50;99.90;;;;;;5042017;28;20233;-68
2023/08/02 00:27:02;;;;;;;2.57;1.60;;;19.60;99.90;;;;;;5044982;28;20207;-68
2023/08/02 00:29:28;;;;;;;2.43;2.00;;;19.80;99.90;;;;;;5044857;28;20190;-67
2023/08/02 00:31:53;;;;;;;2.90;1.90;;;19.80;99.90;;;;;;5040667;28;20536;-68
2023/08/02 00:34:19;;;;;;;2.10;1.43;;;19.60;99.90;;;;;;5043599;28;20167;-67
2023/08/02 00:36:44;;;;;;;2.50;1.87;;;19.50;99.90;;;;;;5045056;28;20166;-68
2023/08/02 00:39:10;;;;;;;1.93;1.73;;;19.60;99.90;;;;;;5042278;28;20190;-68
2023/08/02 00:41:35;;;;;;;4.00;2.17;;;19.60;99.90;;;;;;5043132;28;20171;-68
2023/08/02 00:44:01;;;;;;;4.10;2.00;;;19.50;99.90;;;;;;5041787;28;20175;-69
2023/08/02 00:46:27;;;;;;;2.53;2.23;;;19.60;99.90;;;;;;5044772;28;20170;-67
2023/08/02 00:48:53;;;;;;;4.67;1.93;;;19.50;99.90;;;;;;5043019;28;20199;-68
2023/08/02 00:51:19;;;;;;;2.60;1.87;;;19.50;99.90;;;;;;5040980;28;20413;-68
2023/08/02 00:53:46;;;;;;;3.90;2.27;;;19.50;99.90;;;;;;5041575;28;20589;-67
2023/08/02 00:56:15;;;;;;;6.37;2.13;;;19.40;99.90;;;;;;5047981;28;20417;-67
2023/08/02 00:58:41;;;;;;;6.47;2.10;;;19.30;99.90;;;;;;5043080;28;20464;-67
2023/08/02 01:01:07;;;;;;;3.87;1.73;;;19.20;99.90;;;;;;5041913;28;20445;-68
2023/08/02 01:03:40;;;;;;;3.10;1.90;;;19.20;99.90;;;;;;5044242;28;20417;-67
2023/08/02 01:06:35;;;;;;;2.83;2.00;;;19.20;99.90;;;;;;5044872;28;20474;-67
2023/08/02 01:09:14;;;;;;;4.23;2.00;;;19.20;99.90;;;;;;5039897;28;20503;-68
2023/08/02 01:11:48;;;;;;;4.37;2.40;;;19.30;99.90;;;;;;5043063;28;20397;-67
2023/08/02 01:14:18;;;;;;;3.17;2.20;;;19.30;99.90;;;;;;5045587;28;20422;-67
2023/08/02 01:16:44;;;;;;;3.10;2.30;;;19.20;99.90;;;;;;5043316;28;20403;-67
2023/08/02 01:19:11;;;;;;;2.63;2.20;;;18.90;99.90;;;;;;5047091;28;20773;-67
2023/08/02 01:21:39;;;;;;;5.33;2.10;;;19.00;99.90;;;;;;5045697;28;20402;-67
2023/08/02 01:24:06;;;;;;;2.30;2.10;;;19.00;99.90;;;;;;5048311;28;20423;-67
2023/08/02 01:26:34;;;;;;;2.30;1.90;;;18.90;99.90;;;;;;5044550;28;20414;-68
2023/08/02 01:29:03;;;;;;;3.43;2.27;;;18.90;99.90;;;;;;5045929;28;20449;-67
2023/08/02 01:31:32;;;;;;;3.20;2.13;;;18.50;99.90;;;;;;5044132;28;20500;-67
2023/08/02 01:33:58;;;;;;;3.77;2.30;;;18.50;99.90;;;;;;5042005;28;20406;-67
2023/08/02 01:36:24;;;;;;;3.33;2.07;;;18.60;99.90;;;;;;5043545;28;20433;-68
2023/08/02 01:38:51;;;;;;;5.53;3.00;;;18.70;99.90;;;;;;5042002;28;20437;-67
2023/08/02 01:41:17;;;;;;;2.57;2.13;;;18.60;99.90;;;;;;5041347;28;20236;-67
2023/08/02 01:43:42;;;;;;;6.07;2.43;;;18.60;99.90;;;;;;5042333;28;20887;-66
2023/08/02 01:46:08;;;;;;;4.43;2.20;;;18.60;99.90;;;;;;5041297;28;20176;-67
2023/08/02 01:48:34;;;;;;;5.47;1.83;;;18.50;99.90;;;;;;5041397;28;20195;-67
2023/08/02 01:50:59;;;;;;;4.60;2.13;;;18.40;99.90;;;;;;5042992;28;20561;-67
2023/08/02 01:53:25;;;;;;;3.20;1.90;;;18.40;99.90;;;;;;5043698;28;20170;-66
2023/08/02 01:55:50;;;;;;;2.20;2.00;;;18.20;99.90;;;;;;5048325;28;20181;-67
2023/08/02 01:58:16;;;;;;;3.27;2.00;;;18.10;99.90;;;;;;5046616;28;20289;-67
2023/08/02 02:00:41;;;;;;;6.70;2.60;;;17.90;99.90;;;;;;5045303;28;20219;-67
2023/08/02 02:03:07;;;;;;;2.97;2.00;;;17.90;99.90;;;;;;5046850;28;20175;-67
2023/08/02 02:05:32;;;;;;;3.00;1.90;;;17.90;99.90;;;;;;5046922;28;20586;-67
2023/08/02 02:07:58;;;;;;;3.50;2.10;;;18.00;99.90;;;;;;5059755;22;20215;-67
2023/08/02 02:10:23;;;;;;;2.80;1.80;;;17.90;99.90;;;;;;5043052;28;20186;-67
2023/08/02 02:12:49;;;;;;;2.60;2.00;;;17.90;99.90;;;;;;5046722;28;20163;-67
2023/08/02 02:15:14;;;;;;;3.40;2.60;;;17.90;99.90;;;;;;5045886;28;20171;-68
2023/08/02 02:17:40;;;;;;;2.63;1.83;;;18.00;99.90;;;;;;5042634;28;20199;-68
2023/08/02 02:20:06;;;;;;;3.10;2.03;;;18.00;99.90;;;;;;5025018;28;20241;-68
2023/08/02 02:22:32;;;;;;;6.60;2.00;;;18.00;99.90;;;;;;5026269;28;20164;-67
2023/08/02 02:24:58;;;;;;;2.17;1.90;;;17.90;99.90;;;;;;5027268;28;20547;-68
2023/08/02 02:27:23;;;;;;;4.20;2.30;;;18.10;99.90;;;;;;5024617;28;20251;-67
2023/08/02 02:29:49;;;;;;;3.00;1.93;;;18.10;99.90;;;;;;5024807;28;20194;-68
2023/08/02 02:32:14;;;;;;;2.07;1.87;;;18.20;99.90;;;;;;5024605;28;20515;-68
2023/08/02 02:34:40;;;;;;;4.67;2.80;;;18.20;99.90;;;;;;5026808;28;20318;-68
2023/08/02 02:37:05;;;;;;;1.93;1.70;;;18.20;99.90;;;;;;5026110;28;20171;-67
2023/08/02 02:39:31;;;;;;;3.77;1.90;;;18.30;99.90;;;;;;5026207;28;20192;-68
2023/08/02 02:41:56;;;;;;;3.87;1.70;;;18.40;99.90;;;;;;5027043;28;20611;-68
2023/08/02 02:44:25;;;;;;;2.30;1.93;;;18.30;99.90;;;;;;5024848;28;20178;-67
2023/08/02 02:46:50;;;;;;;3.70;2.00;;;18.20;99.90;;;;;;5024902;28;20179;-68
2023/08/02 02:49:16;;;;;;;2.40;1.80;;;18.20;99.90;;;;;;5024719;28;20451;-67
2023/08/02 02:51:41;;;;;;;2.50;1.80;;;18.20;99.90;;;;;;5026538;28;20203;-68
2023/08/02 02:54:07;;;;;;;2.87;2.10;;;18.30;99.90;;;;;;5025228;28;20172;-68
2023/08/02 02:56:33;;;;;;;2.53;2.17;;;18.30;99.90;;;;;;5024553;28;20156;-67
2023/08/02 02:58:58;;;;;;;4.30;2.30;;;18.30;99.90;;;;;;5024204;28;20203;-68
2023/08/02 03:01:24;;;;;;;3.53;1.80;;;18.40;99.90;;;;;;5025358;28;20204;-67
2023/08/02 03:03:49;;;;;;;6.43;2.17;;;18.40;99.90;;;;;;5025953;28;20222;-68
2023/08/02 03:06:15;;;;;;;1.97;1.80;;;18.40;99.90;;;;;;5023738;28;20637;-68
2023/08/02 03:08:40;;;;;;;2.60;1.87;;;18.50;99.90;;;;;;5023924;28;20218;-68
2023/08/02 03:11:06;;;;;;;3.20;2.33;;;18.40;99.90;;;;;;5023925;28;20168;-68
2023/08/02 03:13:31;;;;;;;2.97;2.20;;;18.40;99.90;;;;;;5026674;28;20190;-69
2023/08/02 03:15:57;;;;;;;2.20;2.00;;;18.40;99.90;;;;;;5023860;28;20163;-69
2023/08/02 03:18:22;;;;;;;3.67;2.10;;;18.30;99.90;;;;;;5025172;28;20219;-68
2023/08/02 03:20:48;;;;;;;5.60;2.20;;;18.30;99.90;;;;;;5023364;28;20639;-68
2023/08/02 03:23:13;;;;;;;2.33;2.07;;;18.30;99.90;;;;;;5025532;28;20164;-69
2023/08/02 03:25:39;;;;;;;3.17;2.30;;;18.20;99.90;;;;;;5026026;28;20217;-69
2023/08/02 03:28:04;;;;;;;2.80;2.30;;;18.30;99.90;;;;;;5022412;28;20192;-69
2023/08/02 03:30:30;;;;;;;3.00;1.73;;;18.40;99.90;;;;;;5025727;28;20254;-69
2023/08/02 03:32:55;;;;;;;2.70;2.20;;;18.40;99.90;;;;;;5023354;28;20179;-69
2023/08/02 03:35:21;;;;;;;2.37;1.60;;;18.50;99.90;;;;;;5023507;28;20653;-68
2023/08/02 03:37:46;;;;;;;2.63;2.00;;;18.60;99.90;;;;;;5024282;28;20574;-68
2023/08/02 03:40:12;;;;;;;2.30;1.87;;;18.60;99.90;;;;;;5024415;28;20187;-68
2023/08/02 03:42:37;;;;;;;3.50;1.90;;;18.50;99.90;;;;;;5024486;28;20547;-68
2023/08/02 03:45:03;;;;;;;2.87;1.57;;;18.60;99.90;;;;;;5025338;28;20163;-67
2023/08/02 03:47:29;;;;;;;2.27;1.80;;;18.60;99.90;;;;;;5023676;28;20637;-67
2023/08/02 03:49:54;;;;;;;2.90;1.97;;;18.60;99.90;;;;;;5024015;28;20442;-68
2023/08/02 03:52:20;;;;;;;2.90;1.83;;;18.70;99.90;;;;;;5022662;28;20279;-67
2023/08/02 03:54:47;;;;;;;2.70;2.30;;;18.60;99.90;;;;;;5024624;28;20176;-68
2023/08/02 03:57:13;;;;;;;2.57;2.10;;;18.60;99.90;;;;;;5025753;28;20203;-67
2023/08/02 03:59:38;;;;;;;2.50;1.90;;;18.60;99.90;;;;;;5022144;28;20481;-68
2023/08/02 04:02:04;;;;;;;2.40;1.93;;;18.60;99.90;;;;;;5022539;28;20179;-68
2023/08/02 04:04:29;;;;;;;4.70;2.30;;;18.60;99.90;;;;;;5023608;28;20176;-68
2023/08/02 04:06:55;;;;;;;2.00;1.73;;;18.60;99.90;;;;;;5025225;28;20179;-69
2023/08/02 04:09:20;;;;;;;1.80;1.70;;;18.60;99.90;;;;;;5021789;28;20218;-67
2023/08/02 04:11:46;;;;;;;3.93;2.40;;;18.60;99.90;;;;;;5023751;28;20222;-68
2023/08/02 04:14:11;;;;;;;2.60;2.23;;;18.60;99.90;;;;;;5022392;28;20178;-68
2023/08/02 04:16:37;;;;;;;4.03;2.50;;;18.70;99.90;;;;;;5024381;28;20168;-68
2023/08/02 04:19:02;;;;;;;3.07;2.00;;;18.60;99.90;;;;;;5022779;28;20199;-68
2023/08/02 04:21:28;;;;;;;3.27;1.90;;;18.50;99.90;;;;;;5024522;28;20193;-67
2023/08/02 04:23:54;;;;;;;3.33;2.30;;;18.40;99.90;;;;;;5022732;28;20179;-68
2023/08/02 04:26:19;;;;;;;3.87;2.07;;;18.40;99.90;;;;;;5023720;28;20170;-67
2023/08/02 04:28:46;;;;;;;2.30;1.97;;;18.40;99.90;;;;;;5021680;28;20704;-68
2023/08/02 04:31:12;;;;;;;4.43;2.10;;;18.60;99.90;;;;;;5021684;28;20160;-68
2023/08/02 04:33:38;;;;;;;3.80;2.50;;;18.50;99.90;;;;;;5024125;28;20909;-68
2023/08/02 04:36:04;;;;;;;5.43;2.30;;;18.30;99.90;;;;;;5023625;28;20410;-68
2023/08/02 04:38:29;;;;;;;4.43;2.57;;;18.30;99.90;;;;;;5022942;28;20198;-68
2023/08/02 04:40:56;;;;;;;3.57;2.40;;;18.30;99.90;;;;;;5021867;28;20175;-67
2023/08/02 04:43:22;;;;;;;2.67;2.23;;;18.20;99.90;;;;;;5023000;28;20219;-67
2023/08/02 04:45:47;;;;;;;4.97;2.73;;;18.20;99.90;;;;;;5024049;28;20406;-68
2023/08/02 04:48:13;;;;;;;3.53;2.50;;;18.30;99.90;;;;;;5023500;28;20187;-67
2023/08/02 04:50:38;;;;;;;3.10;2.80;;;18.10;99.90;;;;;;5022453;28;20281;-68
2023/08/02 04:53:04;;;;;;;4.40;2.80;;;18.00;99.90;;;;;;5021904;28;20172;-68
2023/08/02 04:55:29;;;;;;;3.00;2.50;;;17.90;99.90;;;;;;5025489;28;20168;-67
2023/08/02 04:57:55;;;;;;;2.83;2.20;;;17.90;99.90;;;;;;5025634;28;20643;-68
2023/08/02 05:00:21;;;;;;;3.90;2.57;;;18.00;99.90;;;;;;5023501;28;20550;-67
2023/08/02 05:02:46;;;;;;;6.70;3.00;;;18.10;99.90;;;;;;5025095;28;20163;-67
2023/08/02 05:05:12;;;;;;;2.40;2.20;;;17.80;99.90;;;;;;5023574;28;20225;-68
2023/08/02 05:07:38;;;;;;;3.73;2.37;;;17.90;99.90;;;;;;5021488;28;20250;-68
2023/08/02 05:10:04;;;;;;;3.93;3.03;;;17.80;99.90;;;;;;5021689;28;20274;-68
2023/08/02 05:12:34;;;;;;;6.40;3.00;;;17.70;99.90;;;;;;5021298;28;20411;-68
2023/08/02 05:15:00;;;;;;;3.40;2.80;;;17.80;99.90;;;;;;5023640;28;20496;-68
2023/08/02 05:17:28;;;;;;;3.63;3.07;;;17.70;99.90;;;;;;5021468;28;20538;-68
2023/08/02 05:19:54;;;;;;;2.97;2.67;;;17.70;99.90;;;;;;5022164;28;20253;-71
2023/08/02 05:22:19;;;;;;;3.47;2.80;;;17.70;99.90;;;;;;5021138;28;20497;-67
2023/08/02 05:24:45;;;;;;;5.83;2.60;;;17.80;99.90;;;;;;5024688;28;20195;-69
2023/08/02 05:27:10;;;;;;;4.97;2.40;;;17.70;99.90;;;;;;5026709;28;20175;-69
2023/08/02 05:29:36;;;;;;;4.93;3.33;;;17.80;99.90;;;;;;5026980;28;20195;-68
2023/08/02 05:32:02;;;;;;;5.37;3.07;;;17.80;99.90;;;;;;5025806;28;20187;-71
2023/08/02 05:34:27;;;;;;;4.30;3.13;;;17.60;99.90;;;;;;5025629;28;20163;-69
2023/08/02 05:36:53;;;;;;;3.67;3.10;;;17.60;99.90;;;;;;5025512;28;20582;-69
2023/08/02 05:39:18;;;;;;;4.63;3.60;;;17.60;99.90;;;;;;5027656;28;20263;-70
2023/08/02 05:41:44;;;;;;;4.67;3.00;;;17.50;99.90;;;;;;5023750;28;20171;-70
2023/08/02 05:44:09;;;;;;;3.03;2.73;;;17.60;99.90;;;;;;5026924;28;20657;-69
2023/08/02 05:46:35;;;;;;;3.93;3.30;;;17.50;99.90;;;;;;5024608;28;20172;-70
2023/08/02 05:49:00;;;;;;;4.57;3.50;;;17.40;99.90;;;;;;5027153;28;20200;-69
2023/08/02 05:51:26;;;;;;;3.97;3.20;;;17.50;99.90;;;;;;5024407;28;20665;-70
2023/08/02 05:53:52;;;;;;;4.00;3.60;;;17.40;99.90;;;;;;5027733;28;20167;-69
2023/08/02 05:56:17;;;;;;;6.43;4.10;;;17.40;99.90;;;;;;5027360;28;20404;-68
2023/08/02 05:58:43;;;;;;;4.60;3.37;;;17.40;99.90;;;;;;5025545;28;20183;-68
2023/08/02 06:01:08;;;;;;;3.30;3.00;;;17.50;99.90;;;;;;5025505;28;20173;-70
2023/08/02 06:03:34;;;;;;;3.43;3.10;;;17.50;99.90;;;;;;5024580;28;20172;-69
2023/08/02 06:06:00;;;;;;;4.10;3.57;;;17.60;99.90;;;;;;5026331;28;20180;-69
2023/08/02 06:08:25;;;;;;;3.50;3.20;;;17.60;99.90;;;;;;5026261;28;20762;-68
2023/08/02 06:10:51;;;;;;;3.37;3.07;;;17.50;99.90;;;;;;5023296;28;20254;-69
2023/08/02 06:13:17;;;;;;;38.20;30.40;;;17.60;99.90;;;;;;5025062;28;20174;-69
2023/08/02 06:15:42;;;;;;;4.50;3.77;;;17.50;99.90;;;;;;5024833;28;20230;-69
2023/08/02 06:18:08;;;;;;;4.03;3.60;;;17.50;99.90;;;;;;5026912;28;20500;-68
2023/08/02 06:20:33;;;;;;;5.37;4.80;;;17.60;99.90;;;;;;5024841;28;20579;-69
2023/08/02 06:22:59;;;;;;;4.63;4.10;;;17.50;99.90;;;;;;5026885;28;20171;-70
2023/08/02 06:25:26;;;;;;;4.37;3.47;;;17.50;99.90;;;;;;5024241;28;20262;-69
2023/08/02 06:27:51;;;;;;;5.43;3.90;;;17.60;99.90;;;;;;5025840;28;20218;-69
2023/08/02 06:30:17;;;;;;;6.07;4.30;;;17.60;99.90;;;;;;5025121;28;20897;-70
2023/08/02 06:32:42;;;;;;;5.07;4.10;;;17.50;99.90;;;;;;5026303;28;20163;-69
2023/08/02 06:35:09;;;;;;;5.90;4.40;;;17.50;99.90;;;;;;5023620;28;20172;-70
2023/08/02 06:37:35;;;;;;;7.77;4.70;;;17.40;99.90;;;;;;5025550;28;20246;-70
2023/08/02 06:40:01;;;;;;;6.30;4.50;;;17.50;99.90;;;;;;5025404;28;20993;-69
2023/08/02 06:42:26;;;;;;;5.50;4.30;;;17.60;99.90;;;;;;5026573;28;20171;-69
2023/08/02 06:44:52;;;;;;;10.83;5.60;;;17.70;99.90;;;;;;5024228;28;20544;-70
2023/08/02 06:47:17;;;;;;;6.63;4.80;;;17.60;99.90;;;;;;5024106;28;20179;-70
2023/08/02 06:49:43;;;;;;;7.20;4.57;;;17.50;99.90;;;;;;5025951;28;20195;-69
2023/08/02 06:52:09;;;;;;;8.00;4.97;;;17.70;99.90;;;;;;5028344;28;20261;-69
2023/08/02 06:54:35;;;;;;;6.43;5.20;;;17.80;99.90;;;;;;5025039;28;20642;-70
2023/08/02 06:57:00;;;;;;;8.47;5.80;;;18.00;99.90;;;;;;5027246;28;20407;-67
2023/08/02 06:59:26;;;;;;;6.40;5.70;;;18.20;99.90;;;;;;5020441;28;20203;-69
2023/08/02 07:01:51;;;;;;;6.47;5.80;;;18.30;99.90;;;;;;5027923;28;20186;-69
2023/08/02 07:04:17;;;;;;;6.57;5.97;;;18.50;99.90;;;;;;5023599;28;20178;-69
2023/08/02 07:06:42;;;;;;;9.20;6.37;;;18.50;99.90;;;;;;5022990;28;20187;-69
2023/08/02 07:09:08;;;;;;;5.40;4.77;;;18.60;99.90;;;;;;5024569;28;20582;-69
2023/08/02 07:11:33;;;;;;;8.07;5.93;;;18.70;99.90;;;;;;5021190;28;20631;-68
2023/08/02 07:13:59;;;;;;;6.30;5.43;;;18.60;99.90;;;;;;5025720;28;20650;-68
2023/08/02 07:16:24;;;;;;;6.40;5.80;;;18.50;99.90;;;;;;5023783;28;20551;-69
2023/08/02 07:18:50;;;;;;;6.47;5.87;;;18.40;99.90;;;;;;5023351;28;20567;-69
2023/08/02 07:21:16;;;;;;;9.20;6.97;;;18.30;99.90;;;;;;5024241;28;20172;-68
2023/08/02 07:23:41;;;;;;;5.93;5.17;;;18.50;99.90;;;;;;5024984;28;20209;-69
2023/08/02 07:26:09;;;;;;;7.00;5.93;;;18.60;99.90;;;;;;5026909;28;20182;-69
2023/08/02 07:28:34;;;;;;;8.40;6.73;;;18.70;99.90;;;;;;5022532;28;20192;-69
2023/08/02 07:31:07;;;;;;;6.97;5.40;;;18.80;99.90;;;;;;5028506;28;20938;-69
2023/08/02 07:33:33;;;;;;;6.37;5.67;;;18.90;99.90;;;;;;5024002;28;20164;-69
2023/08/02 07:35:58;;;;;;;8.40;6.40;;;19.10;99.90;;;;;;5024236;28;20402;-69
2023/08/02 07:38:24;;;;;;;6.40;5.80;;;19.10;99.90;;;;;;5022476;28;20613;-69
2023/08/02 07:40:50;;;;;;;6.00;5.40;;;19.00;99.90;;;;;;5024894;28;20176;-70
2023/08/02 07:43:15;;;;;;;6.13;5.60;;;19.00;99.90;;;;;;5022415;28;20194;-70
2023/08/02 07:45:41;;;;;;;6.70;5.60;;;18.80;99.90;;;;;;5024925;28;20175;-69
2023/08/02 07:48:07;;;;;;;7.47;6.77;;;18.80;99.90;;;;;;5022337;28;20302;-70
2023/08/02 07:50:33;;;;;;;8.20;6.30;;;18.90;99.90;;;;;;5021000;28;20218;-70
2023/08/02 07:52:59;;;;;;;7.50;6.30;;;19.00;99.90;;;;;;5024885;28;20465;-69
2023/08/02 07:55:25;;;;;;;5.70;4.73;;;19.00;99.90;;;;;;5025314;28;20452;-69
2023/08/02 07:57:50;;;;;;;6.53;5.80;;;19.10;99.90;;;;;;5021817;28;20227;-70
2023/08/02 08:00:16;;;;;;;7.10;5.97;;;19.10;99.90;;;;;;5024574;28;20171;-70
2023/08/02 08:02:42;;;;;;;5.43;4.90;;;19.00;99.90;;;;;;5024476;28;20170;-69
2023/08/02 08:05:08;;;;;;;5.40;4.87;;;19.00;99.90;;;;;;5022302;28;20634;-69
2023/08/02 08:07:34;;;;;;;5.97;5.37;;;18.90;99.90;;;;;;5021916;28;20171;-70
2023/08/02 08:09:59;;;;;;;4.67;4.17;;;18.90;99.90;;;;;;5081087;22;20485;-68
2023/08/02 08:12:25;;;;;;;6.00;5.23;;;19.00;99.90;;;;;;5064901;28;20159;-67
2023/08/02 08:14:51;;;;;;;6.13;5.33;;;18.90;99.90;;;;;;5065532;28;20173;-68
2023/08/02 08:17:17;;;;;;;7.60;5.37;;;18.80;99.90;;;;;;5068492;28;20170;-68
2023/08/02 08:19:43;;;;;;;4.63;4.20;;;18.80;99.90;;;;;;5062280;28;20844;-67
2023/08/02 08:22:09;;;;;;;5.17;3.70;;;18.90;99.90;;;;;;5068697;28;20220;-67
2023/08/02 08:24:34;;;;;;;5.20;4.70;;;18.80;99.90;;;;;;5072380;28;20404;-68
2023/08/02 08:27:00;;;;;;;4.20;3.77;;;18.90;99.90;;;;;;5064921;28;20162;-67
2023/08/02 08:29:28;;;;;;;4.33;3.93;;;19.00;99.90;;;;;;5063902;28;20237;-67
2023/08/02 08:31:54;;;;;;;4.40;4.00;;;19.10;99.90;;;;;;5063711;28;20250;-68
2023/08/02 08:34:20;;;;;;;3.63;3.00;;;18.90;99.90;;;;;;5063937;28;20944;-68
2023/08/02 08:36:46;;;;;;;4.20;3.80;;;18.90;99.90;;;;;;5062213;28;20169;-67
2023/08/02 08:39:12;;;;;;;4.27;3.87;;;19.00;99.90;;;;;;5063066;28;20198;-68
2023/08/02 08:41:38;;;;;;;3.83;3.27;;;19.10;99.90;;;;;;5064544;28;20400;-69
2023/08/02 08:44:04;;;;;;;4.27;3.23;;;18.90;99.90;;;;;;5064363;28;20946;-67
2023/08/02 08:46:32;;;;;;;3.20;2.90;;;19.10;99.90;;;;;;5062741;28;20464;-67
2023/08/02 08:48:59;;;;;;;3.37;3.07;;;19.10;99.90;;;;;;5062596;28;20202;-67
2023/08/02 08:51:25;;;;;;;3.63;3.33;;;19.10;99.90;;;;;;5064620;28;20412;-67
2023/08/02 08:53:53;;;;;;;3.40;3.07;;;19.10;99.90;;;;;;5064417;28;20420;-68
2023/08/02 08:56:24;;;;;;;4.10;3.10;;;19.10;99.90;;;;;;5062610;28;20839;-67
2023/08/02 08:58:51;;;;;;;3.27;2.87;;;19.10;99.90;;;;;;5064819;28;20512;-67
2023/08/02 09:01:18;;;;;;;4.90;3.10;;;19.10;99.90;;;;;;5061529;28;20839;-69
2023/08/02 09:03:45;;;;;;;3.23;2.90;;;19.20;99.90;;;;;;5058326;28;20410;-67
2023/08/02 09:06:14;;;;;;;4.10;2.93;;;19.00;99.90;;;;;;5061529;28;20401;-67
2023/08/02 09:08:44;;;;;;;3.97;3.57;;;19.00;99.90;;;;;;5063239;28;20436;-68
2023/08/02 09:11:11;;;;;;;3.63;3.17;;;19.10;99.90;;;;;;5062024;28;20404;-65
2023/08/02 09:13:37;;;;;;;3.80;3.40;;;19.20;99.90;;;;;;5064925;28;20397;-65
2023/08/02 09:16:11;;;;;;;3.77;3.03;;;19.10;99.90;;;;;;5063737;28;20424;-67
2023/08/02 09:18:45;;;;;;;3.93;3.30;;;19.00;99.90;;;;;;5062565;28;20456;-66
2023/08/02 09:21:15;;;;;;;3.87;3.20;;;19.10;99.90;;;;;;5061920;28;20435;-66
2023/08/02 09:23:47;;;;;;;3.83;3.30;;;19.30;99.90;;;;;;5064580;28;20883;-66
2023/08/02 09:26:14;;;;;;;5.23;3.10;;;19.30;99.90;;;;;;5061847;28;20405;-66
2023/08/02 09:28:40;;;;;;;3.50;3.20;;;19.20;99.90;;;;;;5064533;28;20447;-66
2023/08/02 09:31:24;;;;;;;5.50;3.83;;;19.30;99.90;;;;;;5061470;28;20410;-67
2023/08/02 09:33:52;;;;;;;3.53;2.83;;;19.40;99.90;;;;;;5058829;28;20430;-67
2023/08/02 09:36:22;;;;;;;3.37;3.07;;;19.50;99.90;;;;;;5061461;28;20822;-66
2023/08/02 09:39:09;;;;;;;4.10;3.57;;;19.80;99.90;;;;;;5059504;28;20433;-67
2023/08/02 09:41:35;;;;;;;4.33;3.40;;;20.00;99.90;;;;;;5057738;28;20389;-67
2023/08/02 09:44:01;;;;;;;4.00;3.07;;;20.10;99.90;;;;;;5055705;28;20777;-67
2023/08/02 09:46:28;;;;;;;4.33;3.80;;;19.90;99.90;;;;;;5056588;28;20170;-68
2023/08/02 09:48:59;;;;;;;5.30;3.80;;;19.90;99.90;;;;;;5056381;28;20661;-67
2023/08/02 09:51:42;;;;;;;4.23;3.83;;;20.10;99.90;;;;;;5054981;28;20887;-66
2023/08/02 09:54:08;;;;;;;5.63;3.80;;;20.20;99.90;;;;;;5058918;28;20428;-66
2023/08/02 09:56:36;;;;;;;5.13;4.73;;;20.10;99.90;;;;;;5064798;28;20404;-67
2023/08/02 09:59:03;;;;;;;4.20;3.00;;;20.40;99.90;;;;;;5061648;28;20435;-66
2023/08/02 10:01:30;;;;;;;7.10;4.03;;;20.50;99.90;;;;;;5062065;28;20413;-67
2023/08/02 10:04:05;;;;;;;4.13;3.73;;;20.50;99.90;;;;;;5062307;28;20903;-67
2023/08/02 10:06:36;;;;;;;4.10;3.30;;;20.80;99.90;;;;;;5058121;28;20901;-66
2023/08/02 10:09:05;;;;;;;3.43;3.13;;;20.80;99.90;;;;;;5057402;28;20821;-67
2023/08/02 10:11:43;;;;;;;6.53;3.70;;;20.90;99.90;;;;;;5063674;28;20499;-68
2023/08/02 10:14:09;;;;;;;4.67;3.60;;;21.10;99.90;;;;;;5059915;28;20380;-68
2023/08/02 10:16:37;;;;;;;4.20;3.70;;;21.30;99.90;;;;;;5065094;28;20450;-68
2023/08/02 10:19:03;;;;;;;4.47;4.07;;;21.40;99.90;;;;;;5065112;28;20504;-68
2023/08/02 10:21:31;;;;;;;4.20;3.37;;;21.40;99.90;;;;;;5067106;28;20823;-68
2023/08/02 10:23:58;;;;;;;6.77;3.77;;;21.30;99.90;;;;;;5064459;28;20415;-68
2023/08/02 10:26:24;;;;;;;5.40;4.20;;;21.20;99.90;;;;;;5065936;28;20405;-67
2023/08/02 10:28:50;;;;;;;5.10;4.43;;;21.10;99.90;;;;;;5066735;28;20440;-68
2023/08/02 10:31:17;;;;;;;4.50;4.10;;;21.30;99.90;;;;;;5064178;28;20492;-68
2023/08/02 10:33:43;;;;;;;4.30;3.90;;;21.30;99.90;;;;;;5067317;28;20499;-67
2023/08/02 10:36:09;;;;;;;6.20;4.37;;;21.30;99.90;;;;;;5064829;28;20980;-68
2023/08/02 10:38:37;;;;;;;6.93;4.13;;;21.30;99.90;;;;;;5065560;28;20688;-67
2023/08/02 10:41:08;;;;;;;4.40;4.00;;;21.30;99.90;;;;;;5058766;28;20432;-67
2023/08/02 10:43:53;;;;;;;5.00;4.50;;;21.40;99.90;;;;;;5054369;28;20399;-68
2023/08/02 10:46:21;;;;;;;4.30;3.90;;;21.30;99.90;;;;;;5053677;28;20393;-68
2023/08/02 10:48:46;;;;;;;5.90;4.90;;;21.50;99.90;;;;;;5062783;28;20992;-68
2023/08/02 10:51:27;;;;;;;4.80;4.23;;;21.30;99.90;;;;;;5061951;28;20441;-67
2023/08/02 10:54:11;;;;;;;4.80;4.30;;;21.20;99.90;;;;;;5063773;28;20178;-68
2023/08/02 10:56:52;;;;;;;5.30;4.57;;;21.30;99.90;;;;;;5059913;28;20397;-68
2023/08/02 10:59:18;;;;;;;5.50;4.27;;;21.40;99.90;;;;;;5060916;28;20859;-68
2023/08/02 11:02:01;;;;;;;4.97;4.20;;;21.40;99.90;;;;;;5066177;28;20397;-67
2023/08/02 11:04:29;;;;;;;4.90;4.20;;;21.30;99.90;;;;;;5063358;28;20384;-68
2023/08/02 11:06:55;;;;;;;4.43;4.03;;;21.20;99.90;;;;;;5060344;28;20752;-68
2023/08/02 11:09:30;;;;;;;6.13;4.50;;;21.30;99.90;;;;;;5064491;28;20460;-67
2023/08/02 11:11:55;;;;;;;4.43;3.80;;;21.60;99.90;;;;;;5064369;28;20174;-68
2023/08/02 11:14:28;;;;;;;5.50;4.70;;;21.80;99.90;;;;;;5059229;28;20460;-67
2023/08/02 11:16:53;;;;;;;6.80;4.60;;;22.00;99.90;;;;;;5059983;28;20163;-67
2023/08/02 11:19:21;;;;;;;5.23;3.90;;;21.90;99.90;;;;;;5065822;28;20478;-68
2023/08/02 11:21:54;;;;;;;10.60;5.60;;;21.90;99.90;;;;;;5064800;28;20166;-67
2023/08/02 11:24:20;;;;;;;4.43;4.00;;;21.90;99.90;;;;;;5062988;28;20478;-66
2023/08/02 11:26:59;;;;;;;4.30;3.90;;;21.90;99.90;;;;;;5066269;28;20408;-68
2023/08/02 11:29:25;;;;;;;4.83;4.37;;;22.00;99.90;;;;;;5061163;28;20186;-67
2023/08/02 11:31:52;;;;;;;4.33;3.90;;;22.20;99.90;;;;;;5059319;28;20406;-69
2023/08/02 11:34:18;;;;;;;5.13;4.40;;;22.50;99.90;;;;;;5058843;28;20409;-67
2023/08/02 11:36:45;;;;;;;5.00;4.43;;;22.70;99.90;;;;;;5056732;28;20971;-68
2023/08/02 11:39:18;;;;;;;7.40;4.43;;;23.10;99.90;;;;;;5060832;28;20432;-69
2023/08/02 11:41:43;;;;;;;4.53;3.80;;;23.30;99.90;;;;;;5055412;28;20771;-68
2023/08/02 11:44:19;;;;;;;4.70;4.30;;;24.30;99.90;;;;;;5053080;28;20413;-69
2023/08/02 11:46:54;;;;;;;5.30;4.50;;;25.20;99.90;;;;;;5056702;28;20170;-68
2023/08/02 11:49:20;;;;;;;4.20;3.80;;;26.10;99.90;;;;;;5061722;28;20467;-67
2023/08/02 11:51:46;;;;;;;4.83;3.50;;;27.10;99.90;;;;;;5061804;28;20408;-69
2023/08/02 11:54:12;;;;;;;5.07;3.93;;;28.00;99.90;;;;;;5066315;28;20166;-68
2023/08/02 11:56:38;;;;;;;4.30;3.90;;;29.00;99.90;;;;;;5062827;28;20252;-68
2023/08/02 11:59:07;;;;;;;4.97;4.50;;;28.70;99.90;;;;;;5064251;28;20470;-68
2023/08/02 12:01:32;;;;;;;5.27;3.80;;;28.30;99.90;;;;;;5064548;28;20418;-67
2023/08/02 12:04:04;;;;;;;4.10;3.70;;;27.40;99.90;;;;;;5062152;28;20966;-68
2023/08/02 12:06:47;;;;;;;4.27;3.87;;;27.50;99.90;;;;;;5058217;28;20163;-68
2023/08/02 12:09:12;;;;;;;4.13;3.70;;;27.30;99.90;;;;;;5059173;28;20480;-68
2023/08/02 12:11:38;;;;;;;4.37;3.63;;;26.80;99.90;;;;;;5065342;28;20925;-68
2023/08/02 12:14:06;;;;;;;4.83;4.33;;;26.70;99.90;;;;;;5064130;28;20195;-68
2023/08/02 12:16:42;;;;;;;4.47;3.90;;;27.00;99.90;;;;;;5064350;28;20421;-69
2023/08/02 12:19:09;;;;;;;4.57;4.17;;;27.30;99.90;;;;;;5062770;28;20923;-68
2023/08/02 12:21:35;;;;;;;4.73;4.17;;;27.40;99.90;;;;;;5064674;28;20404;-68
2023/08/02 12:24:15;;;;;;;6.10;4.53;;;27.10;99.90;;;;;;5061782;28;20409;-68
2023/08/02 12:26:41;;;;;;;5.47;3.23;;;27.30;99.90;;;;;;5058056;28;20409;-68
2023/08/02 12:29:07;;;;;;;4.80;3.80;;;29.00;99.90;;;;;;5063466;28;20970;-68
2023/08/02 12:31:45;;;;;;;8.30;3.83;;;30.30;99.90;;;;;;5063715;28;20173;-68
2023/08/02 12:34:11;;;;;;;4.50;3.40;;;30.20;99.90;;;;;;5062029;28;20633;-68
2023/08/02 12:36:37;;;;;;;4.13;3.57;;;30.50;99.90;;;;;;5061870;28;20452;-67
2023/08/02 12:39:04;;;;;;;4.53;2.87;;;31.00;99.90;;;;;;5063719;28;20304;-68
2023/08/02 12:41:30;;;;;;;4.87;2.90;;;31.90;98.30;;;;;;5063743;28;20419;-68
2023/08/02 12:43:55;;;;;;;3.40;3.10;;;31.50;99.10;;;;;;5063383;28;20773;-70